createdAt,value
2018-12-17T00:01:56.169Z,9.60
2018-12-17T00:04:30.736Z,8.97
2018-12-17T00:07:05.584Z,9.37
2018-12-17T00:09:40.208Z,8.47
2018-12-17T00:12:16.600Z,9.33
2018-12-17T00:14:51.288Z,9.30
2018-12-17T00:17:26.118Z,9.83
2018-12-17T00:20:00.700Z,9.27
2018-12-17T00:22:35.217Z,8.30
2018-12-17T00:25:10.002Z,9.63
2018-12-17T00:27:44.396Z,9.10
2018-12-17T00:30:18.695Z,8.87
2018-12-17T00:32:53.193Z,8.70
2018-12-17T00:35:28.178Z,8.87
2018-12-17T00:38:02.699Z,8.33
2018-12-17T00:40:37.132Z,8.80
2018-12-17T00:43:11.779Z,8.40
2018-12-17T00:45:46.614Z,9.07
2018-12-17T00:48:21.385Z,8.70
2018-12-17T00:50:56.156Z,8.40
2018-12-17T00:53:31.107Z,8.70
2018-12-17T00:56:05.707Z,8.50
2018-12-17T00:58:40.250Z,9.20
2018-12-17T01:01:14.867Z,7.40
2018-12-17T01:03:49.114Z,8.63
2018-12-17T01:06:23.912Z,9.63
2018-12-17T01:08:58.452Z,7.73
2018-12-17T01:11:32.928Z,8.00
2018-12-17T01:14:07.319Z,7.93
2018-12-17T01:16:41.907Z,8.80
2018-12-17T01:19:16.621Z,8.70
2018-12-17T01:21:51.106Z,7.50
2018-12-17T01:24:25.683Z,8.23
2018-12-17T01:27:00.038Z,9.73
2018-12-17T01:29:34.537Z,8.37
2018-12-17T01:32:08.952Z,8.30
2018-12-17T01:34:43.443Z,8.33
2018-12-17T01:37:17.973Z,8.90
2018-12-17T01:39:52.384Z,8.17
2018-12-17T01:42:27.864Z,7.37
2018-12-17T01:45:02.485Z,7.57
2018-12-17T01:47:37.582Z,8.20
2018-12-17T01:50:12.312Z,7.83
2018-12-17T01:52:47.156Z,7.70
2018-12-17T01:55:21.519Z,7.93
2018-12-17T01:57:56.197Z,8.17
2018-12-17T02:00:30.505Z,7.27
2018-12-17T02:03:04.885Z,8.20
2018-12-17T02:05:39.474Z,7.03
2018-12-17T02:08:13.866Z,7.83
2018-12-17T02:10:48.532Z,8.20
2018-12-17T02:13:23.122Z,7.00
2018-12-17T02:15:57.472Z,7.80
2018-12-17T02:18:32.227Z,8.07
2018-12-17T02:21:06.929Z,7.47
2018-12-17T02:23:41.410Z,7.57
2018-12-17T02:26:15.891Z,8.03
2018-12-17T02:28:50.473Z,8.20
2018-12-17T02:31:24.752Z,7.60
2018-12-17T02:33:59.009Z,7.80
2018-12-17T02:36:33.743Z,7.70
2018-12-17T02:39:08.137Z,8.90
2018-12-17T02:41:42.518Z,7.87
2018-12-17T02:44:17.775Z,8.20
2018-12-17T02:46:52.273Z,7.30
2018-12-17T02:49:26.569Z,8.30
2018-12-17T02:52:01.081Z,7.43
2018-12-17T02:54:35.478Z,8.17
2018-12-17T02:57:10.549Z,7.60
2018-12-17T02:59:45.370Z,7.47
2018-12-17T03:02:20.285Z,8.00
2018-12-17T03:04:55.641Z,8.10
2018-12-17T03:07:30.234Z,7.13
2018-12-17T03:10:06.005Z,7.97
2018-12-17T03:12:40.544Z,7.23
2018-12-17T03:15:14.955Z,7.57
2018-12-17T03:17:49.318Z,8.17
2018-12-17T03:20:24.002Z,8.40
2018-12-17T03:22:58.922Z,7.80
2018-12-17T03:25:33.408Z,7.23
2018-12-17T03:28:08.246Z,7.67
2018-12-17T03:30:42.968Z,7.33
2018-12-17T03:33:17.854Z,9.30
2018-12-17T03:35:52.691Z,8.50
2018-12-17T03:38:27.587Z,9.13
2018-12-17T03:41:02.125Z,8.70
2018-12-17T03:43:36.862Z,8.60
2018-12-17T03:46:11.096Z,9.07
2018-12-17T03:48:45.399Z,8.50
2018-12-17T03:51:20.213Z,8.43
2018-12-17T03:53:54.895Z,7.10
2018-12-17T03:56:29.226Z,7.70
2018-12-17T03:59:03.593Z,7.73
2018-12-17T04:01:37.915Z,6.90
2018-12-17T04:04:12.163Z,7.07
2018-12-17T04:06:46.641Z,8.77
2018-12-17T04:09:21.685Z,7.70
2018-12-17T04:11:56.014Z,7.83
2018-12-17T04:14:30.523Z,7.50
2018-12-17T04:17:04.862Z,7.80
2018-12-17T04:19:39.566Z,8.23
2018-12-17T04:22:13.812Z,7.77
2018-12-17T04:24:48.619Z,6.87
2018-12-17T04:27:22.837Z,8.30
2018-12-17T04:29:57.218Z,8.13
2018-12-17T04:32:31.882Z,7.93
2018-12-17T04:35:06.266Z,8.60
2018-12-17T04:37:41.019Z,6.73
2018-12-17T04:40:15.573Z,7.00
2018-12-17T04:42:50.254Z,7.10
2018-12-17T04:45:25.086Z,8.30
2018-12-17T04:47:59.311Z,8.73
2018-12-17T04:50:33.839Z,7.73
2018-12-17T04:53:08.173Z,7.10
2018-12-17T04:55:42.401Z,7.30
2018-12-17T04:58:16.915Z,7.30
2018-12-17T05:00:51.935Z,7.47
2018-12-17T05:03:26.523Z,7.93
2018-12-17T05:06:00.969Z,8.17
2018-12-17T05:08:35.413Z,7.83
2018-12-17T05:11:10.035Z,6.20
2018-12-17T05:13:44.841Z,8.30
2018-12-17T05:16:19.785Z,7.93
2018-12-17T05:18:54.334Z,7.73
2018-12-17T05:21:29.054Z,8.20
2018-12-17T05:24:03.443Z,7.50
2018-12-17T05:26:39.005Z,7.73
2018-12-17T05:29:13.843Z,7.37
2018-12-17T05:31:48.728Z,7.87
2018-12-17T05:34:23.534Z,7.80
2018-12-17T05:36:57.968Z,7.90
2018-12-17T05:39:32.351Z,6.60
2018-12-17T05:42:07.177Z,6.70
2018-12-17T05:44:41.579Z,7.10
2018-12-17T05:47:16.420Z,6.93
2018-12-17T05:49:51.356Z,7.43
2018-12-17T05:52:26.168Z,7.20
2018-12-17T05:55:00.726Z,7.67
2018-12-17T05:57:35.069Z,7.20
2018-12-17T06:00:09.471Z,6.73
2018-12-17T06:02:44.173Z,6.60
2018-12-17T06:05:18.669Z,7.57
2018-12-17T06:07:53.245Z,6.90
2018-12-17T06:10:27.825Z,7.13
2018-12-17T06:13:02.064Z,6.90
2018-12-17T06:15:36.322Z,7.70
2018-12-17T06:18:10.685Z,6.20
2018-12-17T06:20:45.968Z,6.80
2018-12-17T06:23:20.750Z,7.83
2018-12-17T06:25:55.403Z,7.67
2018-12-17T06:28:29.759Z,7.30
2018-12-17T06:31:04.034Z,7.87
2018-12-17T06:33:38.360Z,6.53
2018-12-17T06:36:12.766Z,6.50
2018-12-17T06:38:47.591Z,6.83
2018-12-17T06:41:22.060Z,6.97
2018-12-17T06:43:56.340Z,7.17
2018-12-17T06:46:30.899Z,7.63
2018-12-17T06:49:05.278Z,7.60
2018-12-17T06:51:39.631Z,7.50
2018-12-17T06:54:15.034Z,6.37
2018-12-17T06:56:49.755Z,7.30
2018-12-17T06:59:24.850Z,7.60
2018-12-17T07:02:00.183Z,6.80
2018-12-17T07:04:34.394Z,6.83
2018-12-17T07:07:09.090Z,7.97
2018-12-17T07:09:43.642Z,7.10
2018-12-17T07:12:18.224Z,7.33
2018-12-17T07:14:52.756Z,7.67
2018-12-17T07:17:27.096Z,6.77
2018-12-17T07:20:01.446Z,7.77
2018-12-17T07:22:36.154Z,7.80
2018-12-17T07:25:10.529Z,6.83
2018-12-17T07:27:45.077Z,8.50
2018-12-17T07:30:19.312Z,6.90
2018-12-17T07:32:53.806Z,6.37
2018-12-17T07:35:28.187Z,6.40
2018-12-17T07:38:02.732Z,7.10
2018-12-17T07:40:36.985Z,7.03
2018-12-17T07:43:11.389Z,6.70
2018-12-17T07:45:46.527Z,7.83
2018-12-17T07:48:21.217Z,6.57
2018-12-17T07:50:56.050Z,7.33
2018-12-17T07:53:30.413Z,7.50
2018-12-17T07:56:04.771Z,7.40
2018-12-17T07:58:39.217Z,7.57
2018-12-17T08:01:14.154Z,6.77
2018-12-17T08:03:48.694Z,7.17
2018-12-17T08:06:17.726Z,7.10
2018-12-17T08:08:46.211Z,7.03
2018-12-17T08:11:14.771Z,7.17
2018-12-17T08:13:44.244Z,7.50
2018-12-17T08:16:17.580Z,6.90
2018-12-17T08:18:52.681Z,9.37
2018-12-17T08:21:27.470Z,8.03
2018-12-17T08:24:02.227Z,8.30
2018-12-17T08:26:36.462Z,8.60
2018-12-17T08:29:10.801Z,10.20
2018-12-17T08:31:45.703Z,8.83
2018-12-17T08:34:20.248Z,10.03
2018-12-17T08:36:55.968Z,11.73
2018-12-17T08:39:30.351Z,13.07
2018-12-17T08:41:58.641Z,16.70
2018-12-17T08:44:27.385Z,18.30
2018-12-17T08:46:56.156Z,19.23
2018-12-17T08:49:30.983Z,20.57
2018-12-17T08:52:05.608Z,22.13
2018-12-17T08:54:40.068Z,21.53
2018-12-17T08:57:14.463Z,22.13
2018-12-17T08:59:49.075Z,20.10
2018-12-17T09:02:23.334Z,22.73
2018-12-17T09:04:58.227Z,18.90
2018-12-17T09:07:26.814Z,18.00
2018-12-17T09:10:01.159Z,17.73
2018-12-17T09:12:35.707Z,17.67
2018-12-17T09:15:10.596Z,17.23
2018-12-17T09:17:45.011Z,17.57
2018-12-17T09:20:20.046Z,18.30
2018-12-17T09:22:48.829Z,16.00
2018-12-17T09:25:17.968Z,15.40
2018-12-17T09:27:52.727Z,15.40
2018-12-17T09:30:26.985Z,15.00
2018-12-17T09:32:57.910Z,14.40
2018-12-17T09:35:32.646Z,12.07
2018-12-17T09:38:07.047Z,14.30
2018-12-17T09:40:41.501Z,13.53
2018-12-17T09:43:16.167Z,13.70
2018-12-17T09:45:51.458Z,13.40
2018-12-17T09:48:26.008Z,13.27
2018-12-17T09:50:57.511Z,13.97
2018-12-17T09:53:32.019Z,17.17
2018-12-17T09:56:06.441Z,17.13
2018-12-17T09:58:41.009Z,16.47
2018-12-17T10:01:15.797Z,14.83
2018-12-17T10:03:50.241Z,14.67
2018-12-17T10:06:24.595Z,13.67
2018-12-17T10:08:58.807Z,14.00
2018-12-17T10:11:33.400Z,15.47
2018-12-17T10:14:07.913Z,15.00
2018-12-17T10:16:42.645Z,14.90
2018-12-17T10:19:17.479Z,14.70
2018-12-17T10:21:51.800Z,15.70
2018-12-17T10:24:26.645Z,20.23
2018-12-17T10:27:01.041Z,19.87
2018-12-17T10:29:35.450Z,17.70
2018-12-17T10:32:10.413Z,17.77
2018-12-17T10:34:44.739Z,18.77
2018-12-17T10:37:19.444Z,18.80
2018-12-17T10:39:53.991Z,17.10
2018-12-17T10:42:29.105Z,19.70
2018-12-17T10:45:04.303Z,16.73
2018-12-17T10:47:38.570Z,17.90
2018-12-17T10:50:13.598Z,20.80
2018-12-17T10:52:47.862Z,19.93
2018-12-17T10:55:22.730Z,18.47
2018-12-17T10:57:57.464Z,19.67
2018-12-17T11:00:39.499Z,17.27
2018-12-17T11:03:15.213Z,18.43
2018-12-17T11:05:51.306Z,18.60
2018-12-17T11:08:25.698Z,18.47
2018-12-17T11:10:59.931Z,19.77
2018-12-17T11:13:34.311Z,21.17
2018-12-17T11:16:09.263Z,20.33
2018-12-17T11:18:44.233Z,20.60
2018-12-17T11:21:18.945Z,21.77
2018-12-17T11:23:53.775Z,20.73
2018-12-17T11:26:28.594Z,21.60
2018-12-17T11:29:02.925Z,21.50
2018-12-17T11:31:37.259Z,22.40
2018-12-17T11:34:11.948Z,21.63
2018-12-17T11:36:46.413Z,20.83
2018-12-17T11:39:20.882Z,20.17
2018-12-17T11:41:55.824Z,19.37
2018-12-17T11:44:30.688Z,19.20
2018-12-17T11:47:05.375Z,18.10
2018-12-17T11:49:39.700Z,16.57
2018-12-17T11:52:14.355Z,15.43
2018-12-17T11:54:48.993Z,16.43
2018-12-17T11:57:25.127Z,14.80
2018-12-17T11:59:59.854Z,14.77
2018-12-17T12:02:34.529Z,15.23
2018-12-17T12:05:09.226Z,14.83
2018-12-17T12:07:43.672Z,15.03
2018-12-17T12:10:17.908Z,13.60
2018-12-17T12:12:52.853Z,12.60
2018-12-17T12:15:28.027Z,13.40
2018-12-17T12:18:02.413Z,13.10
2018-12-17T12:20:36.679Z,13.23
2018-12-17T12:26:18.556Z,13.97
2018-12-17T12:28:53.164Z,13.37
2018-12-17T12:31:29.867Z,13.03
2018-12-17T12:34:04.247Z,12.73
2018-12-17T12:36:38.943Z,11.57
2018-12-17T12:39:13.334Z,12.87
2018-12-17T12:44:53.529Z,13.60
2018-12-17T12:47:27.938Z,14.07
2018-12-17T12:50:02.194Z,12.70
2018-12-17T12:52:36.417Z,12.57
2018-12-17T12:55:10.984Z,12.77
2018-12-17T12:57:45.216Z,13.97
2018-12-17T13:00:19.575Z,12.30
2018-12-17T13:02:53.835Z,12.70
2018-12-17T13:05:28.363Z,12.87
2018-12-17T13:08:02.765Z,12.00
2018-12-17T13:10:37.146Z,12.07
2018-12-17T13:13:11.719Z,11.73
2018-12-17T13:15:46.155Z,10.80
2018-12-17T13:18:20.359Z,11.90
2018-12-17T13:20:54.671Z,15.93
2018-12-17T13:23:29.799Z,25.60
2018-12-17T13:26:04.222Z,35.70
2018-12-17T13:28:39.496Z,44.67
2018-12-17T13:31:14.766Z,49.10
2018-12-17T13:33:49.155Z,52.97
2018-12-17T13:36:23.565Z,50.07
2018-12-17T13:38:57.983Z,47.47
2018-12-17T13:41:32.739Z,51.10
2018-12-17T13:44:07.151Z,48.40
2018-12-17T13:46:41.834Z,49.27
2018-12-17T13:49:16.179Z,47.20
2018-12-17T13:51:56.113Z,46.40
2018-12-17T13:54:30.524Z,46.70
2018-12-17T13:57:04.897Z,43.27
2018-12-17T13:59:39.160Z,44.60
2018-12-17T14:02:13.468Z,42.00
2018-12-17T14:04:48.010Z,41.37
2018-12-17T14:07:22.558Z,38.20
2018-12-17T14:10:03.678Z,38.53
2018-12-17T14:12:38.422Z,37.97
2018-12-17T14:15:12.857Z,38.10
2018-12-17T14:17:47.375Z,37.90
2018-12-17T14:20:28.924Z,34.30
2018-12-17T14:23:03.718Z,34.73
2018-12-17T14:25:38.193Z,32.07
2018-12-17T14:28:12.780Z,33.07
2018-12-17T14:30:47.170Z,31.50
2018-12-17T14:33:21.760Z,29.10
2018-12-17T14:36:13.943Z,30.40
2018-12-17T14:38:48.677Z,28.30
2018-12-17T14:41:23.029Z,30.10
2018-12-17T14:43:59.325Z,26.10
2018-12-17T14:46:36.135Z,25.00
2018-12-17T14:49:11.066Z,27.37
2018-12-17T14:51:45.374Z,25.93
2018-12-17T14:54:19.865Z,24.00
2018-12-17T14:56:54.346Z,25.30
2018-12-17T14:59:28.847Z,22.77
2018-12-17T15:02:03.970Z,23.47
2018-12-17T15:04:38.510Z,22.87
2018-12-17T15:07:12.934Z,19.60
2018-12-17T15:09:47.360Z,22.40
2018-12-17T15:12:21.728Z,20.20
2018-12-17T15:14:56.577Z,20.67
2018-12-17T15:17:31.246Z,20.63
2018-12-17T15:20:07.561Z,20.30
2018-12-17T15:22:42.749Z,19.43
2018-12-17T15:25:17.104Z,18.80
2018-12-17T15:27:51.773Z,17.80
2018-12-17T15:30:26.192Z,20.10
2018-12-17T15:33:00.500Z,18.63
2018-12-17T15:35:34.934Z,18.00
2018-12-17T15:38:09.311Z,18.20
2018-12-17T15:40:43.758Z,16.57
2018-12-17T15:43:18.484Z,15.00
2018-12-17T15:45:53.332Z,16.77
2018-12-17T15:48:27.666Z,15.50
2018-12-17T15:51:01.897Z,16.47
2018-12-17T15:53:36.401Z,14.77
2018-12-17T15:56:10.657Z,14.53
2018-12-17T15:58:45.140Z,14.30
2018-12-17T16:01:19.838Z,15.20
2018-12-17T16:03:54.044Z,14.50
2018-12-17T16:06:28.423Z,14.30
2018-12-17T16:09:03.866Z,13.83
2018-12-17T16:11:38.620Z,13.17
2018-12-17T16:14:13.374Z,13.13
2018-12-17T16:16:48.206Z,13.90
2018-12-17T16:19:22.508Z,12.87
2018-12-17T16:21:57.268Z,13.27
2018-12-17T16:24:32.687Z,12.97
2018-12-17T16:27:08.131Z,12.07
2018-12-17T16:29:45.438Z,12.17
2018-12-17T16:32:20.029Z,12.90
2018-12-17T16:34:55.709Z,11.97
2018-12-17T16:37:30.747Z,11.17
2018-12-17T16:40:06.112Z,11.50
2018-12-17T16:42:40.475Z,11.93
2018-12-17T16:45:15.057Z,11.47
2018-12-17T16:47:49.535Z,12.40
2018-12-17T16:50:23.988Z,11.30
2018-12-17T16:52:58.385Z,11.30
2018-12-17T16:55:32.853Z,12.10
2018-12-17T16:58:07.095Z,11.43
2018-12-17T17:00:41.584Z,11.17
2018-12-17T17:03:16.380Z,10.47
2018-12-17T17:05:51.307Z,9.80
2018-12-17T17:08:25.659Z,10.67
2018-12-17T17:10:59.903Z,10.97
2018-12-17T17:13:34.250Z,11.77
2018-12-17T17:16:08.620Z,10.20
2018-12-17T17:18:43.619Z,9.23
2018-12-17T17:21:18.343Z,11.27
2018-12-17T17:23:52.679Z,10.60
2018-12-17T17:26:27.399Z,8.73
2018-12-17T17:29:01.703Z,9.60
2018-12-17T17:31:36.241Z,10.33
2018-12-17T17:34:11.088Z,8.80
2018-12-17T17:36:45.486Z,10.20
2018-12-17T17:39:19.785Z,9.23
2018-12-17T17:41:54.530Z,9.47
2018-12-17T17:44:28.941Z,9.27
2018-12-17T17:47:03.581Z,8.70
2018-12-17T17:49:38.409Z,8.50
2018-12-17T17:52:12.633Z,8.67
2018-12-17T17:54:47.555Z,8.33
2018-12-17T17:57:22.279Z,8.40
2018-12-17T17:59:56.537Z,8.33
2018-12-17T18:02:31.142Z,9.47
2018-12-17T18:05:06.247Z,8.27
2018-12-17T18:07:40.773Z,8.73
2018-12-17T18:10:15.155Z,8.33
2018-12-17T18:12:49.349Z,9.30
2018-12-17T18:15:23.743Z,8.30
2018-12-17T18:18:01.343Z,8.07
2018-12-17T18:20:35.775Z,7.63
2018-12-17T18:23:10.385Z,8.67
2018-12-17T18:25:44.882Z,8.90
2018-12-17T18:28:19.721Z,8.20
2018-12-17T18:30:54.097Z,7.87
2018-12-17T18:33:32.239Z,8.33
2018-12-17T18:36:07.925Z,7.17
2018-12-17T18:38:42.636Z,8.57
2018-12-17T18:41:17.213Z,7.87
2018-12-17T18:43:51.675Z,8.63
2018-12-17T18:46:25.964Z,8.40
2018-12-17T18:49:00.878Z,8.47
2018-12-17T18:51:35.366Z,7.97
2018-12-17T18:54:10.119Z,8.23
2018-12-17T18:56:45.286Z,8.53
2018-12-17T18:59:19.969Z,8.30
2018-12-17T19:01:54.247Z,8.67
2018-12-17T19:04:28.600Z,8.23
2018-12-17T19:07:03.820Z,7.50
2018-12-17T19:09:39.084Z,8.27
2018-12-17T19:12:13.327Z,7.83
2018-12-17T19:14:47.675Z,8.07
2018-12-17T19:17:22.332Z,8.23
2018-12-17T19:19:56.753Z,7.47
2018-12-17T19:22:31.221Z,7.40
2018-12-17T19:25:05.921Z,8.20
2018-12-17T19:27:40.186Z,7.80
2018-12-17T19:30:15.071Z,8.63
2018-12-17T19:32:50.812Z,8.17
2018-12-17T19:35:25.649Z,8.00
2018-12-17T19:38:00.133Z,7.87
2018-12-17T19:40:34.889Z,7.97
2018-12-17T19:43:09.177Z,8.07
2018-12-17T19:45:43.665Z,7.00
2018-12-17T19:48:18.706Z,8.27
2018-12-17T19:50:53.562Z,7.83
2018-12-17T19:53:28.548Z,8.70
2018-12-17T19:56:03.727Z,6.70
2018-12-17T19:58:37.974Z,8.20
2018-12-17T20:01:12.637Z,7.37
2018-12-17T20:03:47.712Z,8.17
2018-12-17T20:06:22.571Z,7.60
2018-12-17T20:08:57.388Z,7.30
2018-12-17T20:11:32.319Z,7.80
2018-12-17T20:14:06.937Z,8.70
2018-12-17T20:16:41.322Z,7.37
2018-12-17T20:19:15.854Z,7.83
2018-12-17T20:21:50.396Z,8.47
2018-12-17T20:24:24.779Z,7.63
2018-12-17T20:26:59.303Z,7.90
2018-12-17T20:29:33.853Z,7.23
2018-12-17T20:32:08.411Z,8.60
2018-12-17T20:34:42.789Z,8.27
2018-12-17T20:37:17.285Z,7.27
2018-12-17T20:39:51.798Z,7.90
2018-12-17T20:42:27.382Z,7.80
2018-12-17T20:45:02.142Z,7.90
2018-12-17T20:47:36.522Z,7.07
2018-12-17T20:50:10.880Z,8.27
2018-12-17T20:52:45.225Z,6.70
2018-12-17T20:55:19.618Z,7.47
2018-12-17T20:57:54.152Z,7.90
2018-12-17T21:00:28.641Z,7.50
2018-12-17T21:03:02.928Z,6.67
2018-12-17T21:05:37.671Z,7.67
2018-12-17T21:08:12.335Z,6.90
2018-12-17T21:10:46.802Z,8.10
2018-12-17T21:13:21.158Z,7.40
2018-12-17T21:15:55.408Z,8.30
2018-12-17T21:18:29.793Z,7.43
2018-12-17T21:21:04.093Z,8.03
2018-12-17T21:23:38.659Z,7.53
2018-12-17T21:26:13.001Z,7.90
2018-12-17T21:28:47.368Z,8.20
2018-12-17T21:31:22.222Z,7.60
2018-12-17T21:33:57.062Z,7.30
2018-12-17T21:36:31.565Z,8.30
2018-12-17T21:39:06.168Z,7.77
2018-12-17T21:41:40.444Z,7.90
2018-12-17T21:44:14.963Z,7.00
2018-12-17T21:46:49.422Z,7.93
2018-12-17T21:49:23.671Z,7.80
2018-12-17T21:51:58.008Z,7.97
2018-12-17T21:54:32.391Z,7.20
2018-12-17T21:57:06.730Z,7.70
2018-12-17T21:59:41.130Z,8.27
2018-12-17T22:02:15.618Z,8.30
2018-12-17T22:04:49.993Z,7.97
2018-12-17T22:07:24.585Z,7.80
2018-12-17T22:09:59.085Z,8.50
2018-12-17T22:12:33.444Z,7.60
2018-12-17T22:15:07.831Z,7.13
2018-12-17T22:17:42.040Z,6.20
2018-12-17T22:20:16.396Z,7.20
2018-12-17T22:22:50.822Z,6.63
2018-12-17T22:25:25.319Z,6.97
2018-12-17T22:27:59.535Z,7.33
2018-12-17T22:30:33.873Z,7.53
2018-12-17T22:33:08.293Z,6.43
2018-12-17T22:35:43.180Z,6.40
2018-12-17T22:38:17.656Z,7.50
2018-12-17T22:40:52.084Z,6.20
2018-12-17T22:43:26.510Z,6.73
2018-12-17T22:46:01.161Z,6.10
2018-12-17T22:48:35.501Z,6.53
2018-12-17T22:51:10.215Z,6.27
2018-12-17T22:53:44.564Z,6.17
2018-12-17T22:56:18.919Z,6.70
2018-12-17T22:58:53.207Z,6.83
2018-12-17T23:01:27.462Z,7.53
2018-12-17T23:04:01.829Z,7.50
2018-12-17T23:06:36.054Z,6.87
2018-12-17T23:09:09.999Z,6.63
2018-12-17T23:12:01.980Z,6.10
2018-12-17T23:14:48.254Z,6.20
2018-12-17T23:17:34.447Z,5.63
2018-12-17T23:20:09.466Z,7.50
2018-12-17T23:22:43.846Z,6.90
2018-12-17T23:25:18.226Z,6.43
2018-12-17T23:27:52.450Z,5.63
2018-12-17T23:30:26.804Z,7.80
2018-12-17T23:33:01.071Z,5.70
2018-12-17T23:35:35.451Z,5.97
2018-12-17T23:38:09.777Z,5.80
2018-12-17T23:40:44.039Z,6.13
2018-12-17T23:43:18.540Z,6.53
2018-12-17T23:45:53.050Z,5.70
2018-12-17T23:48:27.502Z,7.13
2018-12-17T23:51:01.764Z,6.50
2018-12-17T23:53:36.013Z,6.10
2018-12-17T23:56:10.347Z,5.53
2018-12-17T23:58:44.586Z,5.20
